Portada
METAR-TAF:

METAR-TAF

Aeroports :

Watauga County Hospital Heliport

Boone, Carolina del Nord, Estats Units d'Amèrica

latitud: 36-12N, longitud: 081-39W, altitud: 959 m

Observació

L'informe es va fer fa 10 minuts, a les 22:35 UTC
Vent calma
Temperatura -2°C
Humitat 36%
Pressió 1024 hPa
Visibilitat: 16.1 km

METAR: KTNB 132235Z AUTO 00000KT 10SM M02/M15 A3023 RMK AO2 T10231147

Hora: 17:45 (22:45 UTC)


TAF: manca

Observacions i pronòstics meteorològics de més de 4000 aeroports (METAR i TAF).

Les estacions disponibles són els punts grocs i vermells al mapa.

Posi el ratolí al punt desitjat per veure el nom de l'estació.

Feu clic per veure les observacions i els pronòstics meteorològics.

Per canviar el mapa: feu clic els botons verds amb una creu de color negre per apropar; al botó verd amb un guió per allunyar la imatge; o en les fletxes verdes per a mapes adjacents.


METAR-TAF: